X  Blizu METAR Podaci o vazduhoplovstvu     LGEL Elefsis Airport
Temperatura
64°F Temperatura
48°F Tačka Rose
56% Vlaga



Vetar
12 MPS
19 KM/S
5 M/S
10 Čvorovi



160°
JJI
Trenutna situacija

Delimično oblačno Delimično oblačno
Vazdušni pritisak 1016.93 (hPa) - 30.03 (inHg)
Vidljivost 6 (Milje) - 9.7 (km)
Aerodrom
Aerodromski kod. LGEL

Lokacija: Elefsis Airport
Udaljenost: 77 (mi)

Metar:
LGEL 291250Z 16010KT 9999 SCT025 18/09 Q1017

Vreme: 29-02-2024 14:50 EET